createdAt,value
2022-12-22T00:02:23.473Z,6.82
2022-12-22T00:05:08.699Z,6.43
2022-12-22T00:07:53.564Z,9.20
2022-12-22T00:10:38.240Z,7.30
2022-12-22T00:13:22.968Z,4.85
2022-12-22T00:16:08.167Z,7.68
2022-12-22T00:18:52.915Z,6.78
2022-12-22T00:21:37.741Z,6.65
2022-12-22T00:24:22.504Z,10.32
2022-12-22T00:27:07.251Z,4.45
2022-12-22T00:30:01.591Z,7.53
2022-12-22T00:32:55.457Z,10.05
2022-12-22T00:35:41.704Z,7.55
2022-12-22T00:38:31.068Z,15.02
2022-12-22T00:41:15.808Z,10.15
2022-12-22T00:44:00.654Z,5.65
2022-12-22T00:46:45.573Z,11.73
2022-12-22T00:49:30.748Z,8.15
2022-12-22T00:52:15.711Z,8.07
2022-12-22T00:55:00.563Z,5.72
2022-12-22T00:57:45.961Z,7.15
2022-12-22T01:00:35.311Z,5.35
2022-12-22T01:03:20.348Z,7.60
2022-12-22T01:06:05.640Z,11.05
2022-12-22T01:08:50.928Z,7.25
2022-12-22T01:11:35.581Z,6.43
2022-12-22T01:14:20.488Z,7.50
2022-12-22T01:17:05.117Z,4.93
2022-12-22T01:19:49.940Z,6.70
2022-12-22T01:22:37.165Z,11.82
2022-12-22T01:25:27.419Z,7.97
2022-12-22T01:28:12.238Z,4.63
2022-12-22T01:30:56.995Z,6.57
2022-12-22T01:33:41.793Z,7.15
2022-12-22T01:36:26.545Z,8.85
2022-12-22T01:39:11.259Z,8.57
2022-12-22T01:41:56.051Z,6.68
2022-12-22T01:44:40.857Z,13.05
2022-12-22T01:47:44.427Z,8.00
2022-12-22T01:50:29.100Z,7.90
2022-12-22T01:53:19.649Z,5.55
2022-12-22T01:56:05.598Z,6.05
2022-12-22T01:58:53.437Z,5.45
2022-12-22T02:01:38.417Z,7.75
2022-12-22T02:04:23.624Z,5.50
2022-12-22T02:07:10.820Z,5.07
2022-12-22T02:10:02.642Z,6.27
2022-12-22T02:12:54.432Z,8.88
2022-12-22T02:15:54.571Z,7.35
2022-12-22T02:18:45.937Z,5.63
2022-12-22T02:21:33.322Z,7.70
2022-12-22T02:24:36.793Z,11.10
2022-12-22T02:27:21.562Z,6.47
2022-12-22T02:30:09.367Z,5.32
2022-12-22T02:32:55.630Z,8.73
2022-12-22T02:35:40.343Z,8.02
2022-12-22T02:38:43.389Z,8.05
2022-12-22T02:41:37.608Z,7.65
2022-12-22T02:44:33.623Z,9.35
2022-12-22T02:47:32.453Z,4.18
2022-12-22T02:50:21.169Z,10.43
2022-12-22T02:53:06.443Z,7.18
2022-12-22T02:55:51.191Z,4.28
2022-12-22T02:58:37.032Z,8.10
2022-12-22T03:01:22.812Z,6.55
2022-12-22T03:04:08.028Z,5.65
2022-12-22T03:06:52.848Z,9.60
2022-12-22T03:09:37.684Z,10.05
2022-12-22T03:12:22.505Z,7.63
2022-12-22T03:15:07.227Z,3.17
2022-12-22T03:17:52.134Z,5.97
2022-12-22T03:20:36.955Z,6.53
2022-12-22T03:23:25.361Z,5.47
2022-12-22T03:25:54.496Z,7.78
2022-12-22T03:28:21.870Z,6.95
2022-12-22T03:30:55.775Z,7.75
2022-12-22T03:33:22.141Z,4.15
2022-12-22T03:35:48.369Z,4.15
2022-12-22T03:38:14.613Z,4.72
2022-12-22T03:40:40.830Z,11.82
2022-12-22T03:43:25.624Z,6.30
2022-12-22T03:46:13.521Z,5.90
2022-12-22T03:48:39.805Z,4.85
2022-12-22T03:51:06.084Z,7.88
2022-12-22T03:53:32.308Z,3.67
2022-12-22T03:56:04.079Z,5.15
2022-12-22T03:58:33.660Z,8.52
2022-12-22T04:01:07.237Z,4.95
2022-12-22T04:03:33.603Z,3.25
2022-12-22T04:06:00.009Z,4.50
2022-12-22T04:08:26.283Z,5.85
2022-12-22T04:11:11.348Z,10.73
2022-12-22T04:13:37.563Z,7.40
2022-12-22T04:16:03.856Z,6.00
2022-12-22T04:18:30.081Z,5.78
2022-12-22T04:20:56.292Z,6.60
2022-12-22T04:23:22.488Z,6.90
2022-12-22T04:25:48.707Z,5.43
2022-12-22T04:28:15.007Z,3.63
2022-12-22T04:30:41.278Z,4.25
2022-12-22T04:33:07.480Z,6.28
2022-12-22T04:35:33.712Z,5.85
2022-12-22T04:37:59.899Z,5.22
2022-12-22T04:40:26.143Z,5.57
2022-12-22T04:42:52.374Z,4.97
2022-12-22T04:45:18.602Z,7.47
2022-12-22T04:47:44.823Z,4.53
2022-12-22T04:50:11.118Z,3.88
2022-12-22T04:52:37.352Z,5.72
2022-12-22T04:55:04.029Z,4.72
2022-12-22T04:57:30.237Z,2.90
2022-12-22T04:59:56.464Z,6.97
2022-12-22T05:02:22.782Z,8.43
2022-12-22T05:04:49.219Z,4.43
2022-12-22T05:07:15.407Z,7.25
2022-12-22T05:09:41.615Z,8.70
2022-12-22T05:12:26.701Z,6.07
2022-12-22T05:14:52.934Z,9.50
2022-12-22T05:17:19.584Z,4.82
2022-12-22T05:19:45.787Z,5.28
2022-12-22T05:22:12.364Z,5.28
2022-12-22T05:24:38.596Z,8.75
2022-12-22T05:27:04.794Z,4.30
2022-12-22T05:29:31.181Z,6.03
2022-12-22T05:31:57.410Z,6.47
2022-12-22T05:34:23.708Z,4.75
2022-12-22T05:36:49.950Z,8.73
2022-12-22T05:39:16.168Z,5.90
2022-12-22T05:41:42.399Z,2.95
2022-12-22T05:44:08.620Z,7.78
2022-12-22T05:46:34.947Z,1.85
2022-12-22T05:49:01.208Z,4.50
2022-12-22T05:51:27.475Z,3.60
2022-12-22T05:53:53.690Z,7.13
2022-12-22T05:56:19.952Z,7.18
2022-12-22T05:58:46.189Z,5.35
2022-12-22T06:01:12.552Z,10.82
2022-12-22T06:03:38.912Z,9.18
2022-12-22T06:06:05.437Z,3.15
2022-12-22T06:08:31.651Z,7.55
2022-12-22T06:10:58.435Z,7.47
2022-12-22T06:13:25.476Z,17.88
2022-12-22T06:18:18.175Z,13.65
2022-12-22T06:20:47.359Z,10.48
2022-12-22T06:23:13.621Z,17.52
2022-12-22T06:25:39.859Z,11.05
2022-12-22T06:28:06.144Z,8.25
2022-12-22T06:30:33.758Z,12.63
2022-12-22T06:33:00.908Z,9.02
2022-12-22T06:35:27.223Z,10.02
2022-12-22T06:37:53.452Z,8.10
2022-12-22T06:40:19.697Z,7.93
2022-12-22T06:43:08.819Z,10.13
2022-12-22T06:45:36.539Z,9.30
2022-12-22T06:48:02.984Z,9.80
2022-12-22T06:50:29.321Z,8.05
2022-12-22T06:52:56.163Z,6.55
2022-12-22T06:55:22.412Z,14.82
2022-12-22T06:57:48.759Z,12.15
2022-12-22T07:00:15.093Z,16.67
2022-12-22T07:02:41.509Z,10.68
2022-12-22T07:05:07.903Z,13.25
2022-12-22T07:07:34.154Z,10.57
2022-12-22T07:10:00.358Z,6.97
2022-12-22T07:12:27.489Z,17.27
2022-12-22T07:14:53.773Z,7.47
2022-12-22T07:17:20.059Z,7.30
2022-12-22T07:19:46.339Z,7.30
2022-12-22T07:22:12.577Z,10.23
2022-12-22T07:24:38.781Z,16.75
2022-12-22T07:27:05.012Z,15.65
2022-12-22T07:29:31.269Z,9.57
2022-12-22T07:31:57.661Z,12.52
2022-12-22T07:34:23.995Z,10.98
2022-12-22T07:36:50.203Z,14.25
2022-12-22T07:39:16.419Z,11.80
2022-12-22T07:42:01.339Z,10.15
2022-12-22T07:44:27.525Z,11.15
2022-12-22T07:46:53.787Z,17.08
2022-12-22T07:49:38.613Z,16.98
2022-12-22T07:52:04.899Z,15.65
2022-12-22T07:54:33.209Z,9.88
2022-12-22T07:57:03.026Z,15.18
2022-12-22T07:59:29.253Z,14.40
2022-12-22T08:01:55.575Z,18.17
2022-12-22T08:04:22.545Z,15.50
2022-12-22T08:06:48.925Z,15.30
2022-12-22T08:09:17.089Z,16.58
2022-12-22T08:11:43.456Z,19.58
2022-12-22T08:14:09.678Z,10.25
2022-12-22T08:16:35.979Z,21.45
2022-12-22T08:19:02.241Z,14.90
2022-12-22T08:21:28.493Z,13.20
2022-12-22T08:23:55.044Z,19.35
2022-12-22T08:26:43.066Z,14.68
2022-12-22T08:29:31.496Z,22.48
2022-12-22T08:31:58.035Z,14.90
2022-12-22T08:34:24.463Z,18.60
2022-12-22T08:36:52.141Z,18.25
2022-12-22T08:39:19.595Z,18.55
2022-12-22T08:41:51.714Z,16.23
2022-12-22T08:44:25.480Z,22.40
2022-12-22T08:46:52.230Z,12.55
2022-12-22T08:49:18.694Z,24.83
2022-12-22T08:51:45.043Z,10.38
2022-12-22T08:54:11.731Z,22.17
2022-12-22T08:56:38.343Z,13.93
2022-12-22T08:59:07.561Z,20.40
2022-12-22T09:01:34.857Z,9.05
2022-12-22T09:04:01.348Z,14.93
2022-12-22T09:06:29.720Z,12.10
2022-12-22T09:08:59.332Z,11.75
2022-12-22T09:11:25.709Z,16.10
2022-12-22T09:13:53.067Z,18.77
2022-12-22T09:16:19.960Z,7.20
2022-12-22T09:21:12.390Z,9.23
2022-12-22T09:23:38.610Z,8.07
2022-12-22T09:26:08.741Z,10.30
2022-12-22T09:28:35.557Z,13.00
2022-12-22T09:31:01.949Z,8.05
2022-12-22T09:33:28.221Z,13.30
2022-12-22T09:35:54.448Z,15.60
2022-12-22T09:38:20.700Z,12.55
2022-12-22T09:40:46.935Z,12.32
2022-12-22T09:43:15.546Z,8.85
2022-12-22T09:45:41.962Z,10.63
2022-12-22T09:48:10.661Z,9.70
2022-12-22T09:50:38.528Z,8.65
2022-12-22T09:53:05.931Z,6.40
2022-12-22T09:55:40.438Z,10.55
2022-12-22T09:58:26.674Z,5.78
2022-12-22T10:01:16.231Z,4.50
2022-12-22T10:03:42.640Z,6.25
2022-12-22T10:06:24.218Z,7.25
2022-12-22T10:08:53.290Z,5.50
2022-12-22T10:11:19.531Z,3.20
2022-12-22T10:13:45.769Z,5.47
2022-12-22T10:16:26.071Z,2.10
2022-12-22T10:19:08.849Z,1.65
2022-12-22T10:21:42.735Z,3.45
2022-12-22T10:24:26.693Z,3.20
2022-12-22T10:27:03.541Z,4.97
2022-12-22T10:29:31.520Z,2.60
2022-12-22T10:31:59.876Z,3.35
2022-12-22T10:34:26.322Z,3.95
2022-12-22T10:36:55.402Z,2.95
2022-12-22T10:39:26.483Z,4.68
2022-12-22T10:41:55.244Z,3.35
2022-12-22T10:44:23.672Z,6.93
2022-12-22T10:46:51.512Z,4.30
2022-12-22T10:52:11.570Z,2.72
2022-12-22T10:54:38.121Z,3.22
2022-12-22T10:57:13.369Z,6.10
2022-12-22T10:59:53.132Z,6.05
2022-12-22T11:02:24.573Z,5.03
2022-12-22T11:04:51.699Z,4.10
2022-12-22T11:09:44.100Z,6.25
2022-12-22T11:12:25.475Z,7.90
2022-12-22T11:15:10.424Z,10.85
2022-12-22T11:17:45.723Z,7.40
2022-12-22T11:20:28.220Z,6.80
2022-12-22T11:23:00.293Z,8.80
2022-12-22T11:25:38.471Z,4.53
2022-12-22T11:28:16.179Z,4.43
2022-12-22T11:31:01.174Z,6.32
2022-12-22T11:33:33.417Z,7.78
2022-12-22T11:36:01.905Z,5.60
2022-12-22T11:38:40.845Z,9.25
2022-12-22T11:41:22.413Z,5.57
2022-12-22T11:44:07.633Z,5.95
2022-12-22T11:46:47.338Z,4.20
2022-12-22T11:49:24.492Z,6.18
2022-12-22T11:52:10.584Z,9.15
2022-12-22T11:54:46.216Z,6.18
2022-12-22T11:57:15.515Z,6.55
2022-12-22T11:59:41.719Z,4.85
2022-12-22T12:02:26.780Z,5.20
2022-12-22T12:05:08.194Z,10.30
2022-12-22T12:07:34.374Z,3.45
2022-12-22T12:10:14.940Z,8.00
2022-12-22T12:13:06.078Z,7.15
2022-12-22T12:15:32.437Z,4.53
2022-12-22T12:18:07.541Z,12.73
2022-12-22T12:20:41.127Z,4.47
2022-12-22T12:23:17.067Z,7.75
2022-12-22T12:25:53.457Z,4.68
2022-12-22T12:28:34.096Z,5.05
2022-12-22T12:31:00.889Z,5.72
2022-12-22T12:33:36.482Z,6.30
2022-12-22T12:36:22.374Z,3.67
2022-12-22T12:39:08.849Z,6.38
2022-12-22T12:41:59.289Z,7.63
2022-12-22T12:44:27.949Z,9.40
2022-12-22T12:46:56.279Z,2.08
2022-12-22T12:49:34.833Z,11.60
2022-12-22T12:52:04.833Z,45.25
2022-12-22T12:54:36.120Z,5.78
2022-12-22T12:57:21.815Z,12.80
2022-12-22T12:59:48.663Z,4.40
2022-12-22T13:02:27.721Z,4.40
2022-12-22T13:05:11.375Z,7.05
2022-12-22T13:07:56.318Z,4.53
2022-12-22T13:10:26.107Z,2.80
2022-12-22T13:12:53.838Z,3.67
2022-12-22T13:15:30.649Z,6.13
2022-12-22T13:17:57.598Z,7.28
2022-12-22T13:20:29.484Z,5.50
2022-12-22T13:22:56.476Z,1.30
2022-12-22T13:27:49.200Z,3.80
2022-12-22T13:30:16.936Z,11.40
2022-12-22T13:32:44.610Z,3.50
2022-12-22T13:35:31.520Z,2.60
2022-12-22T13:37:59.575Z,3.83
2022-12-22T13:40:30.772Z,5.32
2022-12-22T13:43:05.220Z,2.70
2022-12-22T13:45:45.595Z,2.08
2022-12-22T13:48:17.496Z,4.30
2022-12-22T13:50:51.611Z,2.03
2022-12-22T13:56:25.696Z,1.95
2022-12-22T13:58:54.974Z,4.00
2022-12-22T14:01:21.268Z,3.28
2022-12-22T14:04:01.773Z,6.28
2022-12-22T14:06:30.862Z,8.55
2022-12-22T14:09:15.717Z,8.98
2022-12-22T14:11:52.604Z,15.35
2022-12-22T14:14:26.789Z,9.52
2022-12-22T14:16:54.485Z,8.98
2022-12-22T14:19:22.252Z,6.03
2022-12-22T14:21:50.781Z,8.23
2022-12-22T14:24:20.758Z,13.88
2022-12-22T14:26:47.344Z,11.57
2022-12-22T14:29:17.138Z,14.60
2022-12-22T14:31:56.601Z,10.27
2022-12-22T14:34:24.185Z,16.83
2022-12-22T14:36:53.909Z,19.50
2022-12-22T14:39:21.633Z,17.42
2022-12-22T14:41:51.631Z,24.27
2022-12-22T14:44:23.541Z,27.05
2022-12-22T14:47:08.600Z,33.20
2022-12-22T14:49:35.600Z,22.83
2022-12-22T14:54:28.392Z,28.63
2022-12-22T14:56:59.500Z,18.98
2022-12-22T14:59:27.212Z,26.08
2022-12-22T15:02:04.482Z,16.77
2022-12-22T15:04:31.330Z,17.17
2022-12-22T15:07:37.321Z,24.00
2022-12-22T15:10:15.137Z,22.10
2022-12-22T15:12:42.767Z,22.30
2022-12-22T15:15:13.023Z,27.70
2022-12-22T15:17:39.256Z,31.00
2022-12-22T15:20:05.822Z,23.70
2022-12-22T15:22:32.044Z,38.15
2022-12-22T15:24:58.316Z,32.30
2022-12-22T15:27:24.553Z,32.38
2022-12-22T15:29:50.791Z,42.90
2022-12-22T15:32:17.013Z,29.35
2022-12-22T15:34:43.458Z,43.22
2022-12-22T15:37:12.846Z,45.53
2022-12-22T15:39:39.118Z,41.58
2022-12-22T15:42:05.637Z,36.63
2022-12-22T15:44:38.320Z,34.67
2022-12-22T15:47:05.758Z,45.63
2022-12-22T15:52:00.406Z,32.67
2022-12-22T15:54:27.863Z,38.42
2022-12-22T15:56:54.543Z,49.97
2022-12-22T15:59:23.471Z,38.67
2022-12-22T16:01:55.014Z,40.97
2022-12-22T16:04:25.840Z,31.63
2022-12-22T16:06:52.549Z,31.77
2022-12-22T16:09:21.748Z,36.60
2022-12-22T16:11:48.451Z,36.03
2022-12-22T16:14:15.379Z,41.47
2022-12-22T16:19:15.327Z,40.38
2022-12-22T16:21:42.991Z,45.80
2022-12-22T16:24:19.657Z,41.80
2022-12-22T16:26:46.255Z,45.03
2022-12-22T16:29:15.042Z,45.53
2022-12-22T16:31:41.307Z,41.97
2022-12-22T16:34:09.899Z,34.63
2022-12-22T16:36:36.218Z,40.17
2022-12-22T16:39:02.489Z,37.60
2022-12-22T16:41:29.146Z,40.25
2022-12-22T16:46:40.212Z,42.28
2022-12-22T16:49:07.411Z,31.73
2022-12-22T16:51:34.540Z,38.08
2022-12-22T16:54:01.679Z,34.90
2022-12-22T16:56:30.144Z,39.30
2022-12-22T16:58:56.518Z,38.47
2022-12-22T17:01:25.544Z,36.42
2022-12-22T17:03:52.260Z,40.83
2022-12-22T17:06:18.837Z,31.85
2022-12-22T17:08:46.323Z,36.42
2022-12-22T17:11:23.028Z,38.65
2022-12-22T17:13:50.146Z,46.85
2022-12-22T17:16:20.330Z,37.38
2022-12-22T17:18:46.847Z,38.40
2022-12-22T17:21:13.819Z,42.13
2022-12-22T17:26:07.946Z,38.10
2022-12-22T17:28:35.334Z,38.67
2022-12-22T17:31:01.703Z,40.28
2022-12-22T17:33:28.071Z,37.83
2022-12-22T17:35:56.250Z,38.85
2022-12-22T17:38:24.493Z,41.90
2022-12-22T17:40:50.754Z,45.78
2022-12-22T17:43:18.178Z,36.67
2022-12-22T17:45:45.882Z,34.17
2022-12-22T17:48:13.056Z,38.50
2022-12-22T17:50:39.477Z,42.72
2022-12-22T17:53:06.795Z,42.13
2022-12-22T17:56:06.508Z,35.47
2022-12-22T17:58:19.286Z,37.80
2022-12-22T18:00:45.509Z,36.60
2022-12-22T18:03:15.301Z,32.92
2022-12-22T18:05:43.277Z,27.75
2022-12-22T18:08:12.686Z,26.67
2022-12-22T18:10:39.693Z,30.38
2022-12-22T18:13:12.572Z,34.72
2022-12-22T18:15:38.797Z,33.20
2022-12-22T18:18:11.794Z,35.15
2022-12-22T18:20:38.121Z,33.15
2022-12-22T18:23:04.758Z,35.45
2022-12-22T18:25:31.897Z,34.75
2022-12-22T18:27:58.399Z,23.25
2022-12-22T18:30:25.955Z,18.65
2022-12-22T18:32:53.043Z,27.45
2022-12-22T18:35:20.381Z,27.70
2022-12-22T18:37:46.762Z,30.45
2022-12-22T18:40:24.647Z,20.33
2022-12-22T18:42:54.841Z,23.33
2022-12-22T18:45:22.415Z,16.50
2022-12-22T18:47:48.658Z,27.05
2022-12-22T18:50:16.556Z,27.70
2022-12-22T18:52:43.229Z,32.80
2022-12-22T18:55:14.772Z,28.50
2022-12-22T18:57:42.866Z,24.98
2022-12-22T19:00:13.961Z,27.58
2022-12-22T19:02:40.594Z,21.35
2022-12-22T19:05:14.752Z,30.60
2022-12-22T19:07:41.003Z,25.50
2022-12-22T19:10:08.282Z,26.70
2022-12-22T19:12:34.520Z,21.80
2022-12-22T19:15:05.536Z,24.70
2022-12-22T19:17:31.765Z,25.50
2022-12-22T19:19:57.992Z,24.67
2022-12-22T19:22:24.316Z,28.27
2022-12-22T19:24:51.455Z,37.20
2022-12-22T19:27:19.851Z,33.83
2022-12-22T19:29:46.191Z,28.13
2022-12-22T19:32:21.370Z,26.88
2022-12-22T19:34:47.722Z,37.90
2022-12-22T19:37:13.926Z,31.05
2022-12-22T19:39:40.277Z,34.83
2022-12-22T19:42:09.923Z,39.30
2022-12-22T19:44:36.175Z,43.60
2022-12-22T19:47:02.443Z,40.25
2022-12-22T19:49:29.079Z,34.80
2022-12-22T19:51:55.763Z,38.13
2022-12-22T19:54:22.172Z,31.42
2022-12-22T19:56:50.461Z,41.25
2022-12-22T19:59:28.489Z,37.85
2022-12-22T20:01:57.997Z,39.08
2022-12-22T20:04:24.459Z,33.88
2022-12-22T20:06:50.671Z,32.63
2022-12-22T20:09:16.885Z,20.17
2022-12-22T20:11:43.695Z,27.67
2022-12-22T20:14:15.806Z,27.90
2022-12-22T20:16:42.032Z,33.70
2022-12-22T20:19:13.469Z,34.72
2022-12-22T20:21:39.907Z,27.75
2022-12-22T20:24:06.524Z,45.17
2022-12-22T20:26:33.550Z,55.47
2022-12-22T20:31:26.117Z,63.75
2022-12-22T20:33:54.646Z,39.60
2022-12-22T20:36:31.743Z,96.75
2022-12-22T20:38:59.157Z,44.53
2022-12-22T20:41:26.014Z,33.85
2022-12-22T20:43:53.421Z,27.85
2022-12-22T20:46:21.123Z,28.20
2022-12-22T20:48:49.100Z,26.92
2022-12-22T20:51:17.092Z,21.67
2022-12-22T20:53:43.618Z,22.35
2022-12-22T20:56:16.463Z,39.25
2022-12-22T20:58:42.694Z,18.15
2022-12-22T21:01:09.897Z,32.28
2022-12-22T21:03:36.220Z,40.03
2022-12-22T21:06:02.768Z,28.17
2022-12-22T21:08:29.035Z,26.48
2022-12-22T21:10:55.417Z,26.13
2022-12-22T21:13:21.779Z,28.33
2022-12-22T21:15:51.155Z,20.52
2022-12-22T21:18:19.079Z,19.70
2022-12-22T21:20:45.671Z,19.77
2022-12-22T21:23:13.936Z,17.10
2022-12-22T21:25:46.236Z,22.60
2022-12-22T21:28:20.852Z,26.00
2022-12-22T21:30:47.154Z,27.45
2022-12-22T21:33:13.398Z,27.60
2022-12-22T21:35:39.637Z,22.73
2022-12-22T21:38:05.967Z,23.75
2022-12-22T21:40:32.486Z,24.42
2022-12-22T21:42:58.914Z,18.10
2022-12-22T21:45:29.682Z,21.42
2022-12-22T21:47:59.413Z,18.05
2022-12-22T21:50:27.573Z,23.13
2022-12-22T21:52:53.828Z,21.90
2022-12-22T21:55:23.492Z,22.35
2022-12-22T21:57:49.750Z,13.82
2022-12-22T22:00:17.093Z,22.83
2022-12-22T22:02:43.585Z,14.18
2022-12-22T22:05:20.292Z,19.90
2022-12-22T22:07:46.566Z,27.23
2022-12-22T22:10:12.820Z,20.30
2022-12-22T22:12:39.877Z,14.60
2022-12-22T22:15:07.055Z,19.10
2022-12-22T22:17:33.477Z,20.67
2022-12-22T22:19:59.831Z,19.90
2022-12-22T22:22:26.062Z,14.88
2022-12-22T22:24:52.311Z,21.33
2022-12-22T22:27:18.602Z,23.60
2022-12-22T22:29:44.868Z,21.05
2022-12-22T22:32:11.145Z,21.15
2022-12-22T22:34:37.363Z,16.98
2022-12-22T22:37:03.628Z,21.25
2022-12-22T22:39:29.910Z,19.55
2022-12-22T22:41:56.135Z,20.40
2022-12-22T22:44:22.371Z,11.07
2022-12-22T22:46:48.620Z,11.50
2022-12-22T22:49:14.868Z,13.00
2022-12-22T22:51:41.131Z,12.18
2022-12-22T22:54:07.373Z,11.52
2022-12-22T22:56:33.665Z,11.95
2022-12-22T22:58:59.936Z,14.30
2022-12-22T23:01:26.247Z,18.25
2022-12-22T23:03:52.620Z,11.15
2022-12-22T23:06:19.928Z,14.68
2022-12-22T23:08:47.739Z,12.82
2022-12-22T23:11:14.590Z,15.38
2022-12-22T23:16:07.140Z,12.30
2022-12-22T23:18:33.729Z,17.60
2022-12-22T23:21:00.994Z,13.25
2022-12-22T23:23:27.637Z,12.95
2022-12-22T23:25:53.904Z,14.95
2022-12-22T23:28:20.218Z,8.70
2022-12-22T23:30:48.443Z,10.32
2022-12-22T23:33:15.009Z,12.00
2022-12-22T23:35:41.998Z,12.23
2022-12-22T23:40:54.659Z,13.43
2022-12-22T23:43:21.528Z,6.82
2022-12-22T23:45:47.773Z,13.02
2022-12-22T23:48:14.776Z,4.25
2022-12-22T23:53:07.178Z,7.03
2022-12-22T23:55:33.455Z,9.90
2022-12-22T23:57:59.692Z,14.00
